createdAt,value
2017-03-25T00:00:57.114Z,2.42
2017-03-25T00:02:03.192Z,2.62
2017-03-25T00:03:09.176Z,2.65
2017-03-25T00:04:15.116Z,2.45
2017-03-25T00:05:21.658Z,2.88
2017-03-25T00:06:27.648Z,2.52
2017-03-25T00:07:33.358Z,2.90
2017-03-25T00:08:39.920Z,3.20
2017-03-25T00:09:45.639Z,3.20
2017-03-25T00:10:51.411Z,2.90
2017-03-25T00:11:57.116Z,3.30
2017-03-25T00:13:07.515Z,2.35
2017-03-25T00:14:13.272Z,2.95
2017-03-25T00:15:18.987Z,3.05
2017-03-25T00:16:24.850Z,2.82
2017-03-25T00:17:30.566Z,3.07
2017-03-25T00:18:36.257Z,3.32
2017-03-25T00:19:42.004Z,3.00
2017-03-25T00:20:48.036Z,2.60
2017-03-25T00:21:54.504Z,3.07
2017-03-25T00:23:00.220Z,3.57
2017-03-25T00:24:06.236Z,2.97
2017-03-25T00:25:12.135Z,2.55
2017-03-25T00:26:17.885Z,3.92
2017-03-25T00:27:32.375Z,3.08
2017-03-25T00:28:43.629Z,2.87
2017-03-25T00:29:58.926Z,2.87
2017-03-25T00:31:06.219Z,3.58
2017-03-25T00:32:16.563Z,2.62
2017-03-25T00:33:22.650Z,2.70
2017-03-25T00:34:29.208Z,3.05
2017-03-25T00:35:38.422Z,2.67
2017-03-25T00:36:44.233Z,3.27
2017-03-25T00:37:50.848Z,2.92
2017-03-25T00:38:56.638Z,2.93
2017-03-25T00:40:03.026Z,3.32
2017-03-25T00:41:09.800Z,2.55
2017-03-25T00:42:15.789Z,3.17
2017-03-25T00:43:21.599Z,2.30
2017-03-25T00:44:27.377Z,3.15
2017-03-25T00:45:33.880Z,2.67
2017-03-25T00:46:39.657Z,2.40
2017-03-25T00:47:45.373Z,2.63
2017-03-25T00:48:51.239Z,2.82
2017-03-25T00:49:56.961Z,2.75
2017-03-25T00:51:03.689Z,2.92
2017-03-25T00:52:09.989Z,3.02
2017-03-25T00:53:16.462Z,3.42
2017-03-25T00:54:22.427Z,3.42
2017-03-25T00:55:28.167Z,3.18
2017-03-25T00:56:34.792Z,2.95
2017-03-25T00:57:40.781Z,3.25
2017-03-25T00:58:46.823Z,3.72
2017-03-25T00:59:52.743Z,3.13
2017-03-25T01:00:59.419Z,3.73
2017-03-25T01:02:05.477Z,2.75
2017-03-25T01:03:11.577Z,3.77
2017-03-25T01:04:17.420Z,4.57
2017-03-25T01:05:23.354Z,3.63
2017-03-25T01:06:29.097Z,3.68
2017-03-25T01:07:34.990Z,3.70
2017-03-25T01:08:40.977Z,4.65
2017-03-25T01:09:46.833Z,4.07
2017-03-25T01:10:52.578Z,3.72
2017-03-25T01:11:58.437Z,3.57
2017-03-25T01:13:07.612Z,4.00
2017-03-25T01:14:13.314Z,3.47
2017-03-25T01:15:19.080Z,3.77
2017-03-25T01:16:25.591Z,4.07
2017-03-25T01:17:31.317Z,4.35
2017-03-25T01:18:37.030Z,3.82
2017-03-25T01:19:42.815Z,3.42
2017-03-25T01:20:48.658Z,4.17
2017-03-25T01:21:54.394Z,3.53
2017-03-25T01:23:00.217Z,3.78
2017-03-25T01:24:06.058Z,3.27
2017-03-25T01:25:12.043Z,4.47
2017-03-25T01:26:17.707Z,3.20
2017-03-25T01:27:23.549Z,3.92
2017-03-25T01:28:33.547Z,3.60
2017-03-25T01:29:39.813Z,3.55
2017-03-25T01:30:45.679Z,4.48
2017-03-25T01:31:51.469Z,3.65
2017-03-25T01:32:57.174Z,4.03
2017-03-25T01:34:02.881Z,3.75
2017-03-25T01:35:08.657Z,3.40
2017-03-25T01:36:14.410Z,4.00
2017-03-25T01:37:20.080Z,5.65
2017-03-25T01:38:25.933Z,4.45
2017-03-25T01:39:31.785Z,4.38
2017-03-25T01:40:38.362Z,3.52
2017-03-25T01:41:44.064Z,3.78
2017-03-25T01:42:49.797Z,3.78
2017-03-25T01:43:55.561Z,4.33
2017-03-25T01:45:01.403Z,3.98
2017-03-25T01:46:07.198Z,3.07
2017-03-25T01:47:13.092Z,4.15
2017-03-25T01:48:18.826Z,4.05
2017-03-25T01:49:24.678Z,3.90
2017-03-25T01:50:30.702Z,3.70
2017-03-25T01:51:36.624Z,3.75
2017-03-25T01:52:42.690Z,3.60
2017-03-25T01:53:48.620Z,4.48
2017-03-25T01:54:54.295Z,3.63
2017-03-25T01:56:00.064Z,3.80
2017-03-25T01:57:05.837Z,3.18
2017-03-25T01:58:11.566Z,4.35
2017-03-25T01:59:17.279Z,4.78
2017-03-25T02:00:23.390Z,4.15
2017-03-25T02:01:29.217Z,4.70
2017-03-25T02:02:34.954Z,4.03
2017-03-25T02:03:40.732Z,5.35
2017-03-25T02:04:46.608Z,4.35
2017-03-25T02:05:52.433Z,4.70
2017-03-25T02:06:58.303Z,4.65
2017-03-25T02:09:16.498Z,4.22
2017-03-25T02:10:22.341Z,4.10
2017-03-25T02:11:28.276Z,4.57
2017-03-25T02:12:34.096Z,6.18
2017-03-25T02:13:39.969Z,4.17
2017-03-25T02:14:45.834Z,4.42
2017-03-25T02:15:51.588Z,4.10
2017-03-25T02:16:57.521Z,4.87
2017-03-25T02:18:04.094Z,4.75
2017-03-25T02:19:09.802Z,4.23
2017-03-25T02:20:15.541Z,4.45
2017-03-25T02:21:21.392Z,3.88
2017-03-25T02:22:27.417Z,5.42
2017-03-25T02:23:34.102Z,4.07
2017-03-25T02:24:40.860Z,4.37
2017-03-25T02:25:46.696Z,4.00
2017-03-25T02:26:52.405Z,4.77
2017-03-25T02:27:58.346Z,4.60
2017-03-25T02:29:04.114Z,5.05
2017-03-25T02:30:09.863Z,5.12
2017-03-25T02:31:16.337Z,3.95
2017-03-25T02:32:22.099Z,4.55
2017-03-25T02:33:27.904Z,4.35
2017-03-25T02:34:33.634Z,3.52
2017-03-25T02:35:39.678Z,4.98
2017-03-25T02:36:45.415Z,4.97
2017-03-25T02:37:51.961Z,4.50
2017-03-25T02:38:58.460Z,4.08
2017-03-25T02:40:04.374Z,5.00
2017-03-25T02:41:10.225Z,4.40
2017-03-25T02:42:15.975Z,4.42
2017-03-25T02:43:21.776Z,4.62
2017-03-25T02:44:27.807Z,4.38
2017-03-25T02:45:34.342Z,4.78
2017-03-25T02:46:40.113Z,5.63
2017-03-25T02:47:46.080Z,4.38
2017-03-25T02:48:51.879Z,4.43
2017-03-25T02:49:57.674Z,5.12
2017-03-25T02:51:03.730Z,5.12
2017-03-25T02:52:09.604Z,4.92
2017-03-25T02:53:16.113Z,5.43
2017-03-25T02:54:22.830Z,5.08
2017-03-25T02:55:28.600Z,5.00
2017-03-25T02:56:34.386Z,5.32
2017-03-25T02:57:40.133Z,7.07
2017-03-25T02:58:45.949Z,4.72
2017-03-25T02:59:51.771Z,4.38
2017-03-25T03:00:58.317Z,5.95
2017-03-25T03:02:04.194Z,5.48
2017-03-25T03:03:09.991Z,5.07
2017-03-25T03:04:15.730Z,4.83
2017-03-25T03:05:22.193Z,4.68
2017-03-25T03:06:28.092Z,5.63
2017-03-25T03:07:34.071Z,5.18
2017-03-25T03:08:40.004Z,4.83
2017-03-25T03:09:45.792Z,4.10
2017-03-25T03:10:52.544Z,5.73
2017-03-25T03:11:58.337Z,5.95
2017-03-25T03:13:04.957Z,5.38
2017-03-25T03:14:10.707Z,5.43
2017-03-25T03:15:16.489Z,4.90
2017-03-25T03:16:22.341Z,5.33
2017-03-25T03:17:28.319Z,5.15
2017-03-25T03:18:34.026Z,5.93
2017-03-25T03:19:40.509Z,6.27
2017-03-25T03:20:46.324Z,5.30
2017-03-25T03:21:52.255Z,6.17
2017-03-25T03:22:58.226Z,5.10
2017-03-25T03:24:04.216Z,5.45
2017-03-25T03:25:10.187Z,5.52
2017-03-25T03:26:15.992Z,6.00
2017-03-25T03:27:21.947Z,6.68
2017-03-25T03:28:28.111Z,5.50
2017-03-25T03:29:34.206Z,4.27
2017-03-25T03:30:40.168Z,5.45
2017-03-25T03:31:46.032Z,7.05
2017-03-25T03:32:51.769Z,6.10
2017-03-25T03:33:57.708Z,5.90
2017-03-25T03:35:03.462Z,5.37
2017-03-25T03:36:09.581Z,4.97
2017-03-25T03:37:15.532Z,5.35
2017-03-25T03:38:21.618Z,4.72
2017-03-25T03:39:27.584Z,5.38
2017-03-25T03:40:33.309Z,7.58
2017-03-25T03:41:39.168Z,5.48
2017-03-25T03:42:44.969Z,5.12
2017-03-25T03:43:50.856Z,4.20
2017-03-25T03:44:56.649Z,6.23
2017-03-25T03:46:02.583Z,5.35
2017-03-25T03:47:08.351Z,5.17
2017-03-25T03:48:14.336Z,4.23
2017-03-25T03:49:20.207Z,4.58
2017-03-25T03:50:26.793Z,4.38
2017-03-25T03:51:33.237Z,4.95
2017-03-25T03:52:39.703Z,4.77
2017-03-25T03:53:45.546Z,4.88
2017-03-25T03:54:51.513Z,4.87
2017-03-25T03:55:57.466Z,4.67
2017-03-25T03:57:03.397Z,5.35
2017-03-25T03:58:09.860Z,5.20
2017-03-25T03:59:16.604Z,5.87
2017-03-25T04:00:22.581Z,4.60
2017-03-25T04:01:28.502Z,4.57
2017-03-25T04:02:34.507Z,5.82
2017-03-25T04:03:41.049Z,5.20
2017-03-25T04:04:47.121Z,5.43
2017-03-25T04:05:53.103Z,5.15
2017-03-25T04:06:58.875Z,5.27
2017-03-25T04:08:04.618Z,4.67
2017-03-25T04:09:10.419Z,4.82
2017-03-25T04:10:16.416Z,4.73
2017-03-25T04:11:22.347Z,4.75
2017-03-25T04:12:28.466Z,4.67
2017-03-25T04:13:34.525Z,5.33
2017-03-25T04:14:40.472Z,4.75
2017-03-25T04:15:46.458Z,4.82
2017-03-25T04:16:52.381Z,4.37
2017-03-25T04:17:58.173Z,5.40
2017-03-25T04:19:04.038Z,5.92
2017-03-25T04:20:10.039Z,4.22
2017-03-25T04:21:15.845Z,5.17
2017-03-25T04:22:21.611Z,5.02
2017-03-25T04:23:27.330Z,5.30
2017-03-25T04:24:34.028Z,4.33
2017-03-25T04:25:39.838Z,4.00
2017-03-25T04:26:45.931Z,4.80
2017-03-25T04:27:52.559Z,3.98
2017-03-25T04:28:58.404Z,3.18
2017-03-25T04:30:04.220Z,4.15
2017-03-25T04:31:10.014Z,4.53
2017-03-25T04:32:15.934Z,3.28
2017-03-25T04:33:21.835Z,3.60
2017-03-25T04:34:27.839Z,3.70
2017-03-25T04:35:33.801Z,3.48
2017-03-25T04:36:39.545Z,3.37
2017-03-25T04:37:45.856Z,4.18
2017-03-25T04:38:51.856Z,3.95
2017-03-25T04:39:58.677Z,4.38
2017-03-25T04:41:04.702Z,3.75
2017-03-25T04:42:11.263Z,3.48
2017-03-25T04:43:17.132Z,4.40
2017-03-25T04:44:23.137Z,3.65
2017-03-25T04:45:35.797Z,3.80
2017-03-25T04:46:41.691Z,4.70
2017-03-25T04:47:48.331Z,2.78
2017-03-25T04:48:54.814Z,2.98
2017-03-25T04:50:00.798Z,2.72
2017-03-25T04:51:06.559Z,2.37
2017-03-25T04:52:12.398Z,2.30
2017-03-25T04:53:18.351Z,2.90
2017-03-25T04:54:24.354Z,3.15
2017-03-25T04:55:30.143Z,2.38
2017-03-25T04:56:36.040Z,3.72
2017-03-25T04:57:42.014Z,3.13
2017-03-25T04:58:47.781Z,2.63
2017-03-25T04:59:53.676Z,1.77
2017-03-25T05:00:59.609Z,3.38
2017-03-25T05:02:06.163Z,2.87
2017-03-25T05:03:12.728Z,2.95
2017-03-25T05:04:18.489Z,2.75
2017-03-25T05:05:24.467Z,2.67
2017-03-25T05:06:30.275Z,3.45
2017-03-25T05:07:35.973Z,2.90
2017-03-25T05:08:42.562Z,2.87
2017-03-25T05:09:49.011Z,2.23
2017-03-25T05:10:54.769Z,3.03
2017-03-25T05:12:00.545Z,4.72
2017-03-25T05:13:06.504Z,2.68
2017-03-25T05:14:12.484Z,2.23
2017-03-25T05:15:18.436Z,2.87
2017-03-25T05:16:24.264Z,2.98
2017-03-25T05:17:30.050Z,4.23
2017-03-25T05:18:35.997Z,2.07
2017-03-25T05:19:41.753Z,2.37
2017-03-25T05:20:47.505Z,3.07
2017-03-25T05:21:53.451Z,2.70
2017-03-25T05:22:59.295Z,2.60
2017-03-25T05:24:05.264Z,2.33
2017-03-25T05:25:11.165Z,3.08
2017-03-25T05:26:17.152Z,2.38
2017-03-25T05:27:22.999Z,2.45
2017-03-25T05:28:28.854Z,4.62
2017-03-25T05:29:34.862Z,4.48
2017-03-25T05:30:40.903Z,5.35
2017-03-25T05:31:46.917Z,5.78
2017-03-25T05:32:53.431Z,3.70
2017-03-25T05:33:59.290Z,3.23
2017-03-25T05:35:05.292Z,2.55
2017-03-25T05:36:11.104Z,2.17
2017-03-25T05:37:17.037Z,2.35
2017-03-25T05:38:22.884Z,4.00
2017-03-25T05:39:28.733Z,2.88
2017-03-25T05:40:34.508Z,2.40
2017-03-25T05:41:40.222Z,2.93
2017-03-25T05:42:46.663Z,3.32
2017-03-25T05:43:52.652Z,2.45
2017-03-25T05:44:58.603Z,2.47
2017-03-25T05:46:04.572Z,2.50
2017-03-25T05:47:10.520Z,3.37
2017-03-25T05:48:16.560Z,3.15
2017-03-25T05:49:22.600Z,2.45
2017-03-25T05:50:28.568Z,3.88
2017-03-25T05:51:35.620Z,2.48
2017-03-25T05:52:41.392Z,2.97
2017-03-25T05:53:47.969Z,2.40
2017-03-25T05:54:53.757Z,3.27
2017-03-25T05:55:59.623Z,3.08
2017-03-25T05:57:05.398Z,3.40
2017-03-25T05:58:11.435Z,3.12
2017-03-25T05:59:17.409Z,3.95
2017-03-25T06:00:23.459Z,4.67
2017-03-25T06:01:29.256Z,2.77
2017-03-25T06:02:35.177Z,3.55
2017-03-25T06:03:41.252Z,2.57
2017-03-25T06:04:47.222Z,3.15
2017-03-25T06:05:53.245Z,4.48
2017-03-25T06:06:59.067Z,3.68
2017-03-25T06:08:04.838Z,4.90
2017-03-25T06:09:11.462Z,3.52
2017-03-25T06:10:17.231Z,3.25
2017-03-25T06:11:23.293Z,3.03
2017-03-25T06:12:29.163Z,3.58
2017-03-25T06:13:35.249Z,3.73
2017-03-25T06:14:40.988Z,3.90
2017-03-25T06:15:47.692Z,4.83
2017-03-25T06:16:53.436Z,4.57
2017-03-25T06:17:59.261Z,3.63
2017-03-25T06:19:05.058Z,2.97
2017-03-25T06:20:10.913Z,3.02
2017-03-25T06:21:16.651Z,2.87
2017-03-25T06:22:22.405Z,3.28
2017-03-25T06:23:28.263Z,3.35
2017-03-25T06:24:34.243Z,2.57
2017-03-25T06:25:40.293Z,3.12
2017-03-25T06:26:46.400Z,3.53
2017-03-25T06:27:52.266Z,3.02
2017-03-25T06:28:58.098Z,3.37
2017-03-25T06:30:03.943Z,3.68
2017-03-25T06:31:09.697Z,3.25
2017-03-25T06:32:15.583Z,2.55
2017-03-25T06:33:22.064Z,2.87
2017-03-25T06:34:28.074Z,4.83
2017-03-25T06:35:33.798Z,2.78
2017-03-25T06:36:39.611Z,3.42
2017-03-25T06:37:46.413Z,3.55
2017-03-25T06:38:52.262Z,4.38
2017-03-25T06:39:58.158Z,3.75
2017-03-25T06:41:03.908Z,3.65
2017-03-25T06:42:09.715Z,3.67
2017-03-25T06:43:15.681Z,3.90
2017-03-25T06:44:21.709Z,3.32
2017-03-25T06:45:27.515Z,3.28
2017-03-25T06:46:33.333Z,3.32
2017-03-25T06:47:39.177Z,2.82
2017-03-25T06:48:45.130Z,2.93
2017-03-25T06:49:51.256Z,3.73
2017-03-25T06:50:57.875Z,3.07
2017-03-25T06:52:03.584Z,3.45
2017-03-25T06:53:09.591Z,4.20
2017-03-25T06:54:15.601Z,3.58
2017-03-25T06:55:21.605Z,3.78
2017-03-25T06:56:27.475Z,3.42
2017-03-25T06:57:33.314Z,5.02
2017-03-25T06:58:39.883Z,3.58
2017-03-25T06:59:46.002Z,2.65
2017-03-25T07:00:51.813Z,2.80
2017-03-25T07:01:57.702Z,2.98
2017-03-25T07:03:04.459Z,2.98
2017-03-25T07:04:10.374Z,3.60
2017-03-25T07:05:16.205Z,2.87
2017-03-25T07:06:22.256Z,3.32
2017-03-25T07:07:28.299Z,2.57
2017-03-25T07:08:34.014Z,4.50
2017-03-25T07:09:39.838Z,3.20
2017-03-25T07:10:45.752Z,2.73
2017-03-25T07:11:51.846Z,3.82
2017-03-25T07:12:57.939Z,2.70
2017-03-25T07:14:03.782Z,2.67
2017-03-25T07:15:09.832Z,3.07
2017-03-25T07:16:15.834Z,3.23
2017-03-25T07:17:21.895Z,2.37
2017-03-25T07:18:27.990Z,3.50
2017-03-25T07:19:33.869Z,3.10
2017-03-25T07:20:40.454Z,2.93
2017-03-25T07:21:47.011Z,3.43
2017-03-25T07:22:53.094Z,3.37
2017-03-25T07:23:58.978Z,2.92
2017-03-25T07:25:05.084Z,3.65
2017-03-25T07:26:10.795Z,3.25
2017-03-25T07:27:17.314Z,3.32
2017-03-25T07:28:23.107Z,2.93
2017-03-25T07:29:29.049Z,3.20
2017-03-25T07:30:34.768Z,3.95
2017-03-25T07:31:40.602Z,2.87
2017-03-25T07:32:46.586Z,3.52
2017-03-25T07:33:52.829Z,1.45
2017-03-25T07:34:58.753Z,4.43
2017-03-25T07:36:04.446Z,2.47
2017-03-25T07:37:10.209Z,2.65
2017-03-25T07:38:16.216Z,2.80
2017-03-25T07:39:22.744Z,2.38
2017-03-25T07:40:28.556Z,2.38
2017-03-25T07:41:35.039Z,1.52
2017-03-25T07:42:41.024Z,2.15
2017-03-25T07:43:46.768Z,2.20
2017-03-25T07:44:52.651Z,3.18
2017-03-25T07:45:58.623Z,2.95
2017-03-25T07:47:04.457Z,4.15
2017-03-25T07:48:10.459Z,2.33
2017-03-25T07:49:16.966Z,2.87
2017-03-25T07:50:22.734Z,2.15
2017-03-25T07:51:28.634Z,2.70
2017-03-25T07:52:34.608Z,2.70
2017-03-25T07:53:40.407Z,2.42
2017-03-25T07:54:46.440Z,2.70
2017-03-25T07:55:52.315Z,2.97
2017-03-25T07:56:58.248Z,3.98
2017-03-25T07:58:04.009Z,3.32
2017-03-25T07:59:10.587Z,3.38
2017-03-25T08:00:17.199Z,3.32
2017-03-25T08:01:23.739Z,3.93
2017-03-25T08:02:30.174Z,3.57
2017-03-25T08:03:36.114Z,3.12
2017-03-25T08:04:42.768Z,2.50
2017-03-25T08:05:48.884Z,3.03
2017-03-25T08:06:54.763Z,2.42
2017-03-25T08:08:00.771Z,3.23
2017-03-25T08:09:06.748Z,2.85
2017-03-25T08:10:12.570Z,3.23
2017-03-25T08:11:18.525Z,3.65
2017-03-25T08:12:24.534Z,3.85
2017-03-25T08:13:30.251Z,3.10
2017-03-25T08:14:36.022Z,3.60
2017-03-25T08:15:42.538Z,2.75
2017-03-25T08:16:48.605Z,4.37
2017-03-25T08:17:54.615Z,2.50
2017-03-25T08:19:00.381Z,2.60
2017-03-25T08:20:06.216Z,3.53
2017-03-25T08:21:12.197Z,2.32
2017-03-25T08:22:18.145Z,3.20
2017-03-25T08:23:23.987Z,2.80
2017-03-25T08:24:30.030Z,2.85
2017-03-25T08:25:35.987Z,3.62
2017-03-25T08:26:41.823Z,4.02
2017-03-25T08:27:47.864Z,2.43
2017-03-25T08:28:53.708Z,3.73
2017-03-25T08:29:59.773Z,3.15
2017-03-25T08:31:05.772Z,2.92
2017-03-25T08:32:11.834Z,2.83
2017-03-25T08:33:17.651Z,3.80
2017-03-25T08:34:23.650Z,4.10
2017-03-25T08:35:29.646Z,3.17
2017-03-25T08:36:35.407Z,4.53
2017-03-25T08:37:41.298Z,3.88
2017-03-25T08:38:47.343Z,3.60
2017-03-25T08:39:53.321Z,2.80
2017-03-25T08:40:59.158Z,3.57
2017-03-25T08:42:05.841Z,2.83
2017-03-25T08:43:11.818Z,2.73
2017-03-25T08:44:17.798Z,3.92
2017-03-25T08:45:23.667Z,3.83
2017-03-25T08:46:29.590Z,2.75
2017-03-25T08:47:35.483Z,3.70
2017-03-25T08:48:41.262Z,3.65
2017-03-25T08:49:47.074Z,3.93
2017-03-25T08:50:53.168Z,2.75
2017-03-25T08:51:59.857Z,3.18
2017-03-25T08:53:05.828Z,3.72
2017-03-25T08:54:11.841Z,2.67
2017-03-25T08:55:17.560Z,4.55
2017-03-25T08:56:23.345Z,3.85
2017-03-25T08:57:29.288Z,3.85
2017-03-25T08:58:35.295Z,4.33
2017-03-25T08:59:41.281Z,2.95
2017-03-25T09:00:47.030Z,3.68
2017-03-25T09:01:53.725Z,3.85
2017-03-25T09:02:59.615Z,3.85
2017-03-25T09:04:09.684Z,4.60
2017-03-25T09:05:15.632Z,4.90
2017-03-25T09:06:21.395Z,3.90
2017-03-25T09:07:27.465Z,3.35
2017-03-25T09:08:33.482Z,2.55
2017-03-25T09:09:39.281Z,3.97
2017-03-25T09:10:45.841Z,3.73
2017-03-25T09:11:52.322Z,4.88
2017-03-25T09:12:58.385Z,3.68
2017-03-25T09:14:04.930Z,3.43
2017-03-25T09:15:10.671Z,4.87
2017-03-25T09:16:16.511Z,3.88
2017-03-25T09:17:22.419Z,4.03
2017-03-25T09:18:28.966Z,4.12
2017-03-25T09:19:34.754Z,4.02
2017-03-25T09:20:40.656Z,4.63
2017-03-25T09:21:47.120Z,2.85
2017-03-25T09:22:53.620Z,3.37
2017-03-25T09:23:59.451Z,3.90
2017-03-25T09:25:05.277Z,4.08
2017-03-25T09:26:11.106Z,3.92
2017-03-25T09:27:17.177Z,4.07
2017-03-25T09:28:23.024Z,2.83
2017-03-25T09:29:29.023Z,3.00
2017-03-25T09:30:35.595Z,3.15
2017-03-25T09:31:41.553Z,4.28
2017-03-25T09:32:47.406Z,2.73
2017-03-25T09:33:53.377Z,3.03
2017-03-25T09:34:59.208Z,3.55
2017-03-25T09:36:05.246Z,3.95
2017-03-25T09:37:11.214Z,2.87
2017-03-25T09:38:17.251Z,3.45
2017-03-25T09:39:23.024Z,3.90
2017-03-25T09:40:28.927Z,2.70
2017-03-25T09:41:34.928Z,2.62
2017-03-25T09:42:40.993Z,3.52
2017-03-25T09:43:46.741Z,2.95
2017-03-25T09:44:52.474Z,4.17
2017-03-25T09:45:59.011Z,2.82
2017-03-25T09:47:05.566Z,2.58
2017-03-25T09:48:11.542Z,2.50
2017-03-25T09:49:17.408Z,1.45
2017-03-25T09:50:23.259Z,2.33
2017-03-25T09:51:30.023Z,2.88
2017-03-25T09:52:36.029Z,3.47
2017-03-25T09:53:41.822Z,7.67
2017-03-25T09:54:47.646Z,3.07
2017-03-25T09:55:53.484Z,3.38
2017-03-25T09:57:00.323Z,4.83
2017-03-25T09:58:06.132Z,4.03
2017-03-25T09:59:12.139Z,1.92
2017-03-25T10:00:17.941Z,3.08
2017-03-25T10:01:23.927Z,2.23
2017-03-25T10:02:29.859Z,3.70
2017-03-25T10:03:35.909Z,3.32
2017-03-25T10:04:41.838Z,3.35
2017-03-25T10:05:47.670Z,1.68
2017-03-25T10:06:53.601Z,2.88
2017-03-25T10:07:59.672Z,1.50
2017-03-25T10:09:05.539Z,2.82
2017-03-25T10:10:11.449Z,2.15
2017-03-25T10:11:17.314Z,3.25
2017-03-25T10:12:23.042Z,2.57
2017-03-25T10:13:29.176Z,2.95
2017-03-25T10:14:35.151Z,2.68
2017-03-25T10:15:40.978Z,3.15
2017-03-25T10:16:46.676Z,2.80
2017-03-25T10:17:53.247Z,2.73
2017-03-25T10:18:59.190Z,2.55
2017-03-25T10:20:05.201Z,2.68
2017-03-25T10:21:11.253Z,1.57
2017-03-25T10:22:17.957Z,2.72
2017-03-25T10:23:23.733Z,2.88
2017-03-25T10:24:29.487Z,2.57
2017-03-25T10:25:35.499Z,3.02
2017-03-25T10:26:41.240Z,2.85
2017-03-25T10:27:47.778Z,3.18
2017-03-25T10:28:53.606Z,2.80
2017-03-25T10:29:59.612Z,2.62
2017-03-25T10:31:05.346Z,3.25
2017-03-25T10:32:11.324Z,2.87
2017-03-25T10:33:17.144Z,2.73
2017-03-25T10:34:22.935Z,2.35
2017-03-25T10:35:29.512Z,1.37
2017-03-25T10:36:35.227Z,2.52
2017-03-25T10:37:41.349Z,2.50
2017-03-25T10:38:47.199Z,3.35
2017-03-25T10:39:53.148Z,1.77
2017-03-25T10:40:59.082Z,2.68
2017-03-25T10:42:04.946Z,2.13
2017-03-25T10:43:10.811Z,3.15
2017-03-25T10:44:16.606Z,2.98
2017-03-25T10:45:22.328Z,3.33
2017-03-25T10:46:28.237Z,1.58
2017-03-25T10:47:34.076Z,2.58
2017-03-25T10:48:40.043Z,2.92
2017-03-25T10:49:46.148Z,2.83
2017-03-25T10:50:51.927Z,3.58
2017-03-25T10:51:57.919Z,1.48
2017-03-25T10:53:04.075Z,3.62
2017-03-25T10:54:09.935Z,3.15
2017-03-25T10:55:15.659Z,4.58
2017-03-25T10:56:21.582Z,3.03
2017-03-25T10:57:27.598Z,3.00
2017-03-25T10:58:33.396Z,4.23
2017-03-25T10:59:40.098Z,3.20
2017-03-25T11:00:46.833Z,4.23
2017-03-25T11:01:52.772Z,2.40
2017-03-25T11:02:58.657Z,2.60
2017-03-25T11:04:04.432Z,3.08
2017-03-25T11:05:10.287Z,1.87
2017-03-25T11:06:16.113Z,2.28
2017-03-25T11:07:22.831Z,1.98
2017-03-25T11:08:28.664Z,1.33
2017-03-25T11:09:34.670Z,1.80
2017-03-25T11:10:40.627Z,2.47
2017-03-25T11:11:46.707Z,2.95
2017-03-25T11:12:52.741Z,2.63
2017-03-25T11:13:58.721Z,3.15
2017-03-25T11:15:05.284Z,2.83
2017-03-25T11:16:11.108Z,2.45
2017-03-25T11:17:17.590Z,2.37
2017-03-25T11:18:23.614Z,2.12
2017-03-25T11:19:29.659Z,2.15
2017-03-25T11:20:36.471Z,2.58
2017-03-25T11:21:43.270Z,1.95
2017-03-25T11:22:49.104Z,2.70
2017-03-25T11:23:54.804Z,2.43
2017-03-25T11:25:00.878Z,2.02
2017-03-25T11:26:06.807Z,2.00
2017-03-25T11:27:12.533Z,3.07
2017-03-25T11:28:18.518Z,2.98
2017-03-25T11:29:24.470Z,2.00
2017-03-25T11:30:30.318Z,2.37
2017-03-25T11:31:36.001Z,0.95
2017-03-25T11:32:42.587Z,2.88
2017-03-25T11:33:48.579Z,1.27
2017-03-25T11:34:54.324Z,2.48
2017-03-25T11:36:00.348Z,1.80
2017-03-25T11:37:06.156Z,2.25
2017-03-25T11:38:12.037Z,1.95
2017-03-25T11:39:17.853Z,1.75
2017-03-25T11:40:23.624Z,2.55
2017-03-25T11:41:29.416Z,2.07
2017-03-25T11:42:35.225Z,2.13
2017-03-25T11:43:40.922Z,2.17
2017-03-25T11:44:46.807Z,1.35
2017-03-25T11:45:53.304Z,1.77
2017-03-25T11:46:59.095Z,1.88
2017-03-25T11:48:04.981Z,2.50
2017-03-25T11:49:10.866Z,2.82
2017-03-25T11:50:16.795Z,2.28
2017-03-25T11:51:22.890Z,2.68
2017-03-25T11:52:28.763Z,2.57
2017-03-25T11:53:34.725Z,2.55
2017-03-25T11:54:40.758Z,1.83
2017-03-25T11:55:46.590Z,2.72
2017-03-25T11:56:52.559Z,2.05
2017-03-25T11:57:59.315Z,2.05
2017-03-25T11:59:05.316Z,2.58
2017-03-25T12:00:11.038Z,2.45
2017-03-25T12:01:17.118Z,2.18
2017-03-25T12:02:23.030Z,2.60
2017-03-25T12:03:29.803Z,3.23
2017-03-25T12:04:35.569Z,1.95
2017-03-25T12:05:41.442Z,2.23
2017-03-25T12:06:47.215Z,1.53
2017-03-25T12:07:53.243Z,2.07
2017-03-25T12:08:59.181Z,2.63
2017-03-25T12:10:05.186Z,2.75
2017-03-25T12:11:10.972Z,1.70
2017-03-25T12:12:16.884Z,2.35
2017-03-25T12:13:22.831Z,2.57
2017-03-25T12:14:28.853Z,2.78
2017-03-25T12:15:34.874Z,3.12
2017-03-25T12:16:40.703Z,2.63
2017-03-25T12:17:47.648Z,2.00
2017-03-25T12:18:53.533Z,3.08
2017-03-25T12:19:59.410Z,3.15
2017-03-25T12:21:05.427Z,2.68
2017-03-25T12:24:06.861Z,3.18
2017-03-25T12:25:12.884Z,2.90
2017-03-25T12:26:18.640Z,2.27
2017-03-25T12:27:24.611Z,2.93
2017-03-25T12:28:30.572Z,2.10
2017-03-25T12:29:36.340Z,2.35
2017-03-25T12:30:42.111Z,3.60
2017-03-25T12:31:48.108Z,2.63
2017-03-25T12:32:54.130Z,2.57
2017-03-25T12:34:00.192Z,3.45
2017-03-25T12:38:14.328Z,2.60
2017-03-25T12:39:20.285Z,3.88
2017-03-25T12:40:26.011Z,2.25
2017-03-25T12:41:32.548Z,2.32
2017-03-25T12:42:38.388Z,2.45
2017-03-25T12:43:44.359Z,2.70
2017-03-25T12:44:51.035Z,2.00
2017-03-25T12:45:57.121Z,2.82
2017-03-25T12:47:03.661Z,2.60
2017-03-25T12:48:09.419Z,2.27
2017-03-25T12:49:15.366Z,2.50
2017-03-25T12:50:21.252Z,2.27
2017-03-25T12:51:27.814Z,2.57
2017-03-25T12:52:33.596Z,2.33
2017-03-25T12:53:39.323Z,2.60
2017-03-25T12:54:45.064Z,2.50
2017-03-25T12:55:50.810Z,2.67
2017-03-25T12:56:56.832Z,2.62
2017-03-25T12:58:03.484Z,2.60
2017-03-25T12:59:09.353Z,2.22
2017-03-25T13:00:15.893Z,2.65
2017-03-25T13:01:22.453Z,1.80
2017-03-25T13:02:28.944Z,2.27
2017-03-25T13:03:35.472Z,2.20
2017-03-25T13:04:41.306Z,2.22
2017-03-25T13:05:47.050Z,2.68
2017-03-25T13:06:53.532Z,5.22
2017-03-25T13:07:59.512Z,6.30
2017-03-25T13:09:05.450Z,2.65
2017-03-25T13:10:11.288Z,3.02
2017-03-25T13:11:17.028Z,2.55
2017-03-25T13:12:22.824Z,3.07
2017-03-25T13:13:28.948Z,2.70
2017-03-25T13:14:34.794Z,1.83
2017-03-25T13:15:40.626Z,2.43
2017-03-25T13:16:46.327Z,2.28
2017-03-25T13:17:52.079Z,2.03
2017-03-25T13:18:57.901Z,2.47
2017-03-25T13:20:03.680Z,1.97
2017-03-25T13:21:09.384Z,2.37
2017-03-25T13:22:16.064Z,1.85
2017-03-25T13:23:22.013Z,2.17
2017-03-25T13:24:28.121Z,2.12
2017-03-25T13:25:33.884Z,2.17
2017-03-25T13:26:39.628Z,2.28
2017-03-25T13:27:45.672Z,2.63
2017-03-25T13:28:52.397Z,2.77
2017-03-25T13:29:58.235Z,2.35
2017-03-25T13:31:04.190Z,2.47
2017-03-25T13:32:10.027Z,2.75
2017-03-25T13:33:15.970Z,3.70
2017-03-25T13:34:21.777Z,1.60
2017-03-25T13:35:27.676Z,2.80
2017-03-25T13:36:33.715Z,2.35
2017-03-25T13:37:39.589Z,2.17
2017-03-25T13:38:45.501Z,2.50
2017-03-25T13:39:52.163Z,2.53
2017-03-25T13:41:04.157Z,2.27
2017-03-25T13:42:09.961Z,2.53
2017-03-25T13:43:16.008Z,4.47
2017-03-25T13:44:21.748Z,3.18
2017-03-25T13:45:27.580Z,2.98
2017-03-25T13:46:33.419Z,3.35
2017-03-25T13:47:39.424Z,5.55
2017-03-25T13:48:45.176Z,2.47
2017-03-25T13:49:51.147Z,3.63
2017-03-25T13:50:57.156Z,3.35
2017-03-25T13:52:02.902Z,3.45
2017-03-25T13:53:08.960Z,2.97
2017-03-25T13:54:14.883Z,3.60
2017-03-25T13:55:20.874Z,3.90
2017-03-25T13:56:27.399Z,3.98
2017-03-25T13:57:33.379Z,5.38
2017-03-25T13:58:39.266Z,4.17
2017-03-25T13:59:45.242Z,3.42
2017-03-25T14:00:51.250Z,3.10
2017-03-25T14:01:57.931Z,3.63
2017-03-25T14:03:03.789Z,4.52
2017-03-25T14:04:09.538Z,4.23
2017-03-25T14:05:16.127Z,3.18
2017-03-25T14:06:22.204Z,1.75
2017-03-25T14:07:28.244Z,1.87
2017-03-25T14:08:34.011Z,2.12
2017-03-25T14:09:39.744Z,2.53
2017-03-25T14:10:45.765Z,2.70
2017-03-25T14:11:51.741Z,3.15
2017-03-25T14:12:57.461Z,2.02
2017-03-25T14:14:03.364Z,2.20
2017-03-25T14:15:09.160Z,2.35
2017-03-25T14:16:15.698Z,2.87
2017-03-25T14:17:21.455Z,3.62
2017-03-25T14:18:27.319Z,2.12
2017-03-25T14:19:33.110Z,2.95
2017-03-25T14:20:39.638Z,4.30
2017-03-25T14:21:45.494Z,2.60
2017-03-25T14:22:51.307Z,2.37
2017-03-25T14:23:57.183Z,2.43
2017-03-25T14:25:02.881Z,2.63
2017-03-25T14:26:08.700Z,2.13
2017-03-25T14:27:14.410Z,2.82
2017-03-25T14:28:20.195Z,2.15
2017-03-25T14:29:26.016Z,2.43
2017-03-25T14:30:31.916Z,2.90
2017-03-25T14:31:37.781Z,2.90
2017-03-25T14:32:43.607Z,1.70
2017-03-25T14:33:49.520Z,2.68
2017-03-25T14:34:55.275Z,2.45
2017-03-25T14:36:01.139Z,2.82
2017-03-25T14:37:07.070Z,3.48
2017-03-25T14:38:12.975Z,2.47
2017-03-25T14:39:18.767Z,2.97
2017-03-25T14:40:24.678Z,3.20
2017-03-25T14:41:30.572Z,1.68
2017-03-25T14:42:36.476Z,2.97
2017-03-25T14:43:43.158Z,2.72
2017-03-25T14:44:49.163Z,3.57
2017-03-25T14:45:54.859Z,2.15